Puerto Banus, Marbella

>

This is an optional block (switch it off / on) in the settings - file ($SITE['banners'] = false;)

You can display ads, any other important text or photo’s using text / html or PHP code.

You can place one or more at the top and or bottom and it can all be different for content / size .


Meteosat more information blitzortung!


Radar lluvias more information rain snow radar


Visita nuestra red de sitios de meteo:

Documentation for the template used

MeteoibericaRed estaciones Meteorologicas

MeteoclimaticRed estaciones Meteorologicas



No particular awareness of the weather is required.    There are no Weather-warnings

Informes METAR proximidad

   
EHVK - Volkel Rnlafb, Netherlands
Distancia hasta la estación: SW 18 km
Actualización: 21-01-2020 11:55
Light Freezing, Llovizna, Luvia, Ligeros copos de nieve, Nublado  
Light Freezing, Llovizna, Luvia, Ligeros copos de nieve, Nublado  
   Viento: SSW 11.1 km/h
Viento: SSW 11.1 km/h
Temperatura: -1°C
Térmica: -5°C
Punto de rocío: -1°C
Humedad: 100%
Baromètro: 1043 hPa
Nublado: Nublado
Visibilidad: 0 km
detalles de la nube: Parcialmente nublado,
Nublado 100 ft
EHVK 211055Z AUTO 20006KT 190V250 0300 R24R/0400N -FZDZRA -SN BKN000 OVC001 M01/M01 Q1043 REDZSN RED VRB02KT 0300 FZFG OVC000
EDLV - Niederrhein, Germany
Distancia hasta la estación: SE 25 km
Actualización: 21-01-2020 11:50
Freezing, Niebla, Parcialmente nublado  
Freezing, Niebla, Parcialmente nublado  
   Viento: South 7.4 km/h
Viento: South 7.4 km/h
Temperatura: -1°C
Térmica: -4°C
Punto de rocío: -1°C
Humedad: 100%
Baromètro: 1043 hPa
Nublado: Parcialmente nublado
Visibilidad: 1 km
detalles de la nube: Parcialmente nublado 100 ft
EDLV 211050Z 19004KT 160V220 0450 R27/0550V0800U FZFG BKN001 M01/M01 Q1043
EHDL - Deelen Rnlafb, Netherlands
Distancia hasta la estación: N 35 km
Actualización: 21-01-2020 11:55
Niebla, Nublado  
Niebla, Nublado  
   Viento: SW 9.3 km/h
Viento: SW 9.3 km/h
Temperatura: 0°C
Térmica: -3°C
Punto de rocío: 0°C
Humedad: 100%
Baromètro: 1042 hPa
Nublado: Nublado
Visibilidad: 3 km
detalles de la nube: Parcialmente nublado 100 ft,
Nublado 200 ft
EHDL 211055Z AUTO 22005KT 150V250 2800 BR BKN001 OVC002 M00/M00 Q1042 RED
EHEH - Eindhoven Rnlafb, Netherlands
Distancia hasta la estación: SW 48 km
Actualización: 21-01-2020 11:47
Freezing, Niebla, Nublado  
Freezing, Niebla, Nublado  
   Viento: SSW 9.3 km/h
Viento: SSW 9.3 km/h
Temperatura: -1°C
Térmica: -4°C
Punto de rocío: -2°C
Humedad: 93%
Baromètro: 1043 hPa
Nublado: Nublado
Visibilidad: 0 km
detalles de la nube: Nublado
EHEH 211047Z AUTO 20005KT 160V230 0300 R21/0500U FZFG OVC000 M01/M02 Q1043 RED 22005KT 0300 FZFG OVC000 BECMG 0500 OVC001 RMK LVP BRAVO
EHGR - Gilze-Rijen Rnla, Netherlands
Distancia hasta la estación: WSW 70 km
Actualización: 21-01-2020 11:55
Niebla, Nublado  
Niebla, Nublado  
   Viento: SSW 11.1 km/h
Viento: SSW 11.1 km/h
Temperatura: 0°C
Térmica: -3°C
Punto de rocío: 0°C
Humedad: 100%
Baromètro: 1043 hPa
Nublado: Nublado
Visibilidad: 0 km
detalles de la nube: Parcialmente nublado,
Nublado 200 ft
EHGR 211055Z AUTO 20006KT 140V230 0400 R28/0500N FG BKN000 OVC002 00/00 Q1043 RED 22005KT 300 FZFG OVC000 BECMG 600 FG OVC001
EBBL - Kleine-Brogel(Ba, Belgium
Distancia hasta la estación: SSW 71 km
Actualización: 21-01-2020 11:25
Freezing, Niebla, Parcialmente nublado  
Freezing, Niebla, Parcialmente nublado  
   Viento: varía 1.9 km/h
Viento: varía 1.9 km/h
Temperatura: -3°C
Punto de rocío: -3°C
Humedad: 100%
Baromètro: 1043 hPa
Nublado: Parcialmente nublado
Visibilidad: 0 km
detalles de la nube: Parcialmente nublado 200 ft
EBBL 211025Z VRB01KT 0100 FZFG BKN002 M03/M03 Q1043 RED RED BECMG AMB

Guión original por  Saratoga-weather.org Adaptado para la plantilla por  Weerstation Leuven

Usted encontrará nuestra información del tiempo también en:

Iberian Peninsula Weather Network